CPZ6 weather

Montreal / Point Zero Helipad
Montreal, Quebec, Canada

Public forecast

Using degrees Celsius for public forecast. Weather courtesy of forecast.io.

METAR (pilot weather report)

Closest report is Montreal / Pierre Elliott Trudeau International Airport, 5.0 nm (9.2 km) SW. Retrieved 2019/07/22 20:00 UTC (30 seconds ago):

CYUL 222000Z 16005KT 110V240 30SM FEW060 FEW180 BKN240 23/08 A2987 RMK CF1AC2CS5 CF TR SLP117 DENSITY ALT 1200FT

TAF (pilot weather forecast)

Closest forecast is Montreal / Pierre Elliott Trudeau International Airport, 5.0 nm (9.2 km) SW. Retrieved 2019/07/22 21:48 UTC (0 seconds ago):

TAF CYUL 222042Z 2221/2318 VRB03KT P6SM SCT080 BKN240 FM231000 24005KT P6SM FEW080 BECMG 2316/2318 26012KT RMK NXT FCST BY 230000Z